createdAt,value
2023-03-19T00:00:31.668Z,8.16
2023-03-19T00:02:58.529Z,8.02
2023-03-19T00:05:34.193Z,8.07
2023-03-19T00:08:01.033Z,8.11
2023-03-19T00:10:27.705Z,8.32
2023-03-19T00:13:01.633Z,8.26
2023-03-19T00:15:28.443Z,8.11
2023-03-19T00:17:56.660Z,8.19
2023-03-19T00:20:23.486Z,8.19
2023-03-19T00:22:56.245Z,8.10
2023-03-19T00:25:23.081Z,8.00
2023-03-19T00:27:50.046Z,7.96
2023-03-19T00:30:16.908Z,7.95
2023-03-19T00:32:43.645Z,7.91
2023-03-19T00:35:35.348Z,7.87
2023-03-19T00:38:03.010Z,7.91
2023-03-19T00:40:31.487Z,7.86
2023-03-19T00:42:59.420Z,7.73
2023-03-19T00:45:51.666Z,7.73
2023-03-19T00:48:24.473Z,7.78
2023-03-19T00:51:16.115Z,7.58
2023-03-19T00:53:44.048Z,7.44
2023-03-19T00:56:12.404Z,7.58
2023-03-19T00:58:40.997Z,7.52
2023-03-19T01:01:12.951Z,7.49
2023-03-19T01:03:40.164Z,7.41
2023-03-19T01:06:07.144Z,7.34
2023-03-19T01:08:34.152Z,7.26
2023-03-19T01:11:09.383Z,7.38
2023-03-19T01:13:36.180Z,7.26
2023-03-19T01:16:03.570Z,7.34
2023-03-19T01:18:31.008Z,7.43
2023-03-19T01:20:59.073Z,7.43
2023-03-19T01:23:27.935Z,7.39
2023-03-19T01:25:54.777Z,7.24
2023-03-19T01:28:32.382Z,7.14
2023-03-19T01:31:01.028Z,7.12
2023-03-19T01:33:50.720Z,7.05
2023-03-19T01:36:26.371Z,7.21
2023-03-19T01:39:01.695Z,7.24
2023-03-19T01:41:31.812Z,7.24
2023-03-19T01:44:25.138Z,7.18
2023-03-19T01:47:17.298Z,7.16
2023-03-19T01:50:05.227Z,7.07
2023-03-19T01:52:35.484Z,7.20
2023-03-19T01:55:15.812Z,7.17
2023-03-19T01:58:01.133Z,7.14
2023-03-19T02:01:06.342Z,7.15
2023-03-19T02:03:38.148Z,7.34
2023-03-19T02:06:25.036Z,7.48
2023-03-19T02:08:52.780Z,7.39
2023-03-19T02:11:19.580Z,7.46
2023-03-19T02:13:47.475Z,7.54
2023-03-19T02:16:23.732Z,7.58
2023-03-19T02:18:50.893Z,7.58
2023-03-19T02:21:18.798Z,7.70
2023-03-19T02:24:02.112Z,7.78
2023-03-19T02:26:52.307Z,7.85
2023-03-19T02:29:22.727Z,7.77
2023-03-19T02:31:49.943Z,7.73
2023-03-19T02:34:38.144Z,7.66
2023-03-19T02:37:10.015Z,7.64
2023-03-19T02:39:55.859Z,7.73
2023-03-19T02:42:22.944Z,7.69
2023-03-19T02:44:49.649Z,7.64
2023-03-19T02:47:17.053Z,7.73
2023-03-19T02:49:51.749Z,7.63
2023-03-19T02:52:19.455Z,7.69
2023-03-19T02:54:46.752Z,7.60
2023-03-19T02:57:21.234Z,7.51
2023-03-19T03:00:08.784Z,7.46
2023-03-19T03:02:35.425Z,7.43
2023-03-19T03:05:06.477Z,7.36
2023-03-19T03:07:38.714Z,7.44
2023-03-19T03:10:06.021Z,7.34
2023-03-19T03:12:35.705Z,7.46
2023-03-19T03:15:27.135Z,7.56
2023-03-19T03:17:54.073Z,7.73
2023-03-19T03:20:20.862Z,7.78
2023-03-19T03:22:48.201Z,7.68
2023-03-19T03:25:23.541Z,7.67
2023-03-19T03:27:50.159Z,7.62
2023-03-19T03:30:17.069Z,7.76
2023-03-19T03:32:44.085Z,7.63
2023-03-19T03:35:10.885Z,7.67
2023-03-19T03:37:44.064Z,7.66
2023-03-19T03:40:11.238Z,7.66
2023-03-19T03:42:38.065Z,7.66
2023-03-19T03:45:33.444Z,7.55
2023-03-19T03:48:01.428Z,7.57
2023-03-19T03:50:28.331Z,7.61
2023-03-19T03:52:57.419Z,7.64
2023-03-19T03:55:31.851Z,7.67
2023-03-19T03:57:59.072Z,7.68
2023-03-19T04:00:26.658Z,7.66
2023-03-19T04:02:59.709Z,7.80
2023-03-19T04:05:26.532Z,7.94
2023-03-19T04:07:53.741Z,7.97
2023-03-19T04:10:35.052Z,8.01
2023-03-19T04:13:02.822Z,8.07
2023-03-19T04:15:31.291Z,8.23
2023-03-19T04:18:02.077Z,8.36
2023-03-19T04:20:29.121Z,8.41
2023-03-19T04:22:56.303Z,8.53
2023-03-19T04:25:30.270Z,8.65
2023-03-19T04:27:58.210Z,8.54
2023-03-19T04:30:27.709Z,8.65
2023-03-19T04:33:00.053Z,8.53
2023-03-19T04:35:27.328Z,8.52
2023-03-19T04:37:53.985Z,8.67
2023-03-19T04:40:21.505Z,8.68
2023-03-19T04:42:49.095Z,8.63
2023-03-19T04:45:28.636Z,8.56
2023-03-19T04:47:57.516Z,8.44
2023-03-19T04:50:24.293Z,8.31
2023-03-19T04:52:51.256Z,8.19
2023-03-19T04:55:18.312Z,8.09
2023-03-19T04:57:51.620Z,8.07
2023-03-19T05:00:21.205Z,7.98
2023-03-19T05:02:48.602Z,8.03
2023-03-19T05:05:15.411Z,8.02
2023-03-19T05:07:42.385Z,8.00
2023-03-19T05:10:11.264Z,7.98
2023-03-19T05:12:41.210Z,8.02
2023-03-19T05:15:09.527Z,8.01
2023-03-19T05:17:41.315Z,7.96
2023-03-19T05:20:18.123Z,7.91
2023-03-19T05:22:52.857Z,7.77
2023-03-19T05:25:20.922Z,7.59
2023-03-19T05:27:48.339Z,7.65
2023-03-19T05:30:28.025Z,7.51
2023-03-19T05:33:11.404Z,7.37
2023-03-19T05:35:41.284Z,7.43
2023-03-19T05:38:15.663Z,7.43
2023-03-19T05:40:53.436Z,7.47
2023-03-19T05:43:29.966Z,7.78
2023-03-19T05:45:57.987Z,7.78
2023-03-19T05:48:28.897Z,7.61
2023-03-19T05:50:56.232Z,7.62
2023-03-19T05:53:23.163Z,7.64
2023-03-19T05:56:10.944Z,7.75
2023-03-19T05:58:49.397Z,7.82
2023-03-19T06:01:22.416Z,7.79
2023-03-19T06:03:58.212Z,7.95
2023-03-19T06:06:24.901Z,7.98
2023-03-19T06:08:53.110Z,7.88
2023-03-19T06:11:43.090Z,7.92
2023-03-19T06:14:41.964Z,7.84
2023-03-19T06:17:37.761Z,7.88
2023-03-19T06:20:08.127Z,7.92
2023-03-19T06:22:34.826Z,7.87
2023-03-19T06:25:04.808Z,7.88
2023-03-19T06:27:35.171Z,7.95
2023-03-19T06:30:22.217Z,8.16
2023-03-19T06:32:49.124Z,8.11
2023-03-19T06:35:20.034Z,8.17
2023-03-19T06:37:49.052Z,8.58
2023-03-19T06:40:16.052Z,8.87
2023-03-19T06:43:00.950Z,9.31
2023-03-19T06:45:35.418Z,9.61
2023-03-19T06:48:02.160Z,9.80
2023-03-19T06:50:28.810Z,9.95
2023-03-19T06:52:55.557Z,10.15
2023-03-19T06:55:22.260Z,10.40
2023-03-19T06:57:54.964Z,10.57
2023-03-19T07:00:21.923Z,10.44
2023-03-19T07:02:48.679Z,10.03
2023-03-19T07:05:15.756Z,10.49
2023-03-19T07:07:42.440Z,10.63
2023-03-19T07:10:12.231Z,10.74
2023-03-19T07:12:38.932Z,10.90
2023-03-19T07:15:06.684Z,11.14
2023-03-19T07:17:33.469Z,11.11
2023-03-19T07:20:04.996Z,11.10
2023-03-19T07:22:36.070Z,11.36
2023-03-19T07:25:13.489Z,11.48
2023-03-19T07:27:40.230Z,11.49
2023-03-19T07:30:07.602Z,11.64
2023-03-19T07:32:34.471Z,11.79
2023-03-19T07:35:04.768Z,11.77
2023-03-19T07:37:35.200Z,11.68
2023-03-19T07:40:05.285Z,11.70
2023-03-19T07:42:36.556Z,11.70
2023-03-19T07:45:04.443Z,11.54
2023-03-19T07:47:33.513Z,11.63
2023-03-19T07:50:02.682Z,11.92
2023-03-19T07:52:32.524Z,12.14
2023-03-19T07:55:05.990Z,12.29
2023-03-19T07:57:33.089Z,12.54
2023-03-19T08:00:02.911Z,12.55
2023-03-19T08:02:39.591Z,12.80
2023-03-19T08:05:06.590Z,12.99
2023-03-19T08:07:33.520Z,13.20
2023-03-19T08:10:03.653Z,13.16
2023-03-19T08:12:33.312Z,13.03
2023-03-19T08:15:03.137Z,13.34
2023-03-19T08:17:37.989Z,13.27
2023-03-19T08:20:13.941Z,13.23
2023-03-19T08:22:41.893Z,13.37
2023-03-19T08:25:09.841Z,13.33
2023-03-19T08:27:36.686Z,13.33
2023-03-19T08:30:07.302Z,13.17
2023-03-19T08:32:34.502Z,12.71
2023-03-19T08:35:07.140Z,12.83
2023-03-19T08:37:43.224Z,13.00
2023-03-19T08:40:10.803Z,12.88
2023-03-19T08:42:44.410Z,12.85
2023-03-19T08:45:12.901Z,12.77
2023-03-19T08:47:40.448Z,12.79
2023-03-19T08:50:07.764Z,12.85
2023-03-19T08:53:00.102Z,13.09
2023-03-19T08:55:26.768Z,12.94
2023-03-19T08:57:53.555Z,12.41
2023-03-19T09:00:20.546Z,12.22
2023-03-19T09:02:47.278Z,12.28
2023-03-19T09:05:15.122Z,12.34
2023-03-19T09:07:48.958Z,12.46
2023-03-19T09:10:27.904Z,12.63
2023-03-19T09:12:57.538Z,12.58
2023-03-19T09:15:24.432Z,12.63
2023-03-19T09:18:00.521Z,12.80
2023-03-19T09:20:29.696Z,12.83
2023-03-19T09:22:56.543Z,13.03
2023-03-19T09:25:32.514Z,12.91
2023-03-19T09:27:59.428Z,12.75
2023-03-19T09:30:26.282Z,12.84
2023-03-19T09:33:02.290Z,12.77
2023-03-19T09:35:31.566Z,12.65
2023-03-19T09:38:02.543Z,12.63
2023-03-19T09:40:35.450Z,13.15
2023-03-19T09:43:42.294Z,13.28
2023-03-19T09:46:16.851Z,13.07
2023-03-19T09:48:57.623Z,13.22
2023-03-19T09:51:46.777Z,13.45
2023-03-19T09:54:39.788Z,13.59
2023-03-19T09:57:13.137Z,13.76
2023-03-19T09:59:42.185Z,13.99
2023-03-19T10:02:47.665Z,14.14
2023-03-19T10:05:28.148Z,14.25
2023-03-19T10:08:11.362Z,14.32
2023-03-19T10:11:30.780Z,14.65
2023-03-19T10:14:22.479Z,14.30
2023-03-19T10:16:53.559Z,14.30
2023-03-19T10:19:42.913Z,13.92
2023-03-19T10:22:19.179Z,13.79
2023-03-19T10:24:47.521Z,14.28
2023-03-19T10:27:41.520Z,14.94
2023-03-19T10:30:23.172Z,14.91
2023-03-19T10:33:28.815Z,14.63
2023-03-19T10:36:02.013Z,13.87
2023-03-19T10:38:56.789Z,13.89
2023-03-19T10:41:58.984Z,14.19
2023-03-19T10:44:45.079Z,14.19
2023-03-19T10:47:18.468Z,14.18
2023-03-19T10:49:45.442Z,14.04
2023-03-19T10:52:19.719Z,13.88
2023-03-19T10:54:46.562Z,14.09
2023-03-19T10:57:39.815Z,13.83
2023-03-19T11:00:09.110Z,13.72
2023-03-19T11:03:13.909Z,14.00
2023-03-19T11:05:41.010Z,14.04
2023-03-19T11:08:35.301Z,14.31
2023-03-19T11:11:05.257Z,14.97
2023-03-19T11:13:35.397Z,15.18
2023-03-19T11:16:07.223Z,14.57
2023-03-19T11:18:39.587Z,14.25
2023-03-19T11:21:17.278Z,14.19
2023-03-19T11:23:55.317Z,13.87
2023-03-19T11:26:28.681Z,13.78
2023-03-19T11:29:17.265Z,14.04
2023-03-19T11:31:54.488Z,14.23
2023-03-19T11:34:45.668Z,13.89
2023-03-19T11:37:37.138Z,14.18
2023-03-19T11:40:26.571Z,14.77
2023-03-19T11:43:41.047Z,14.78
2023-03-19T11:46:24.157Z,15.26
2023-03-19T11:49:03.131Z,14.89
2023-03-19T11:51:44.558Z,15.09
2023-03-19T11:54:18.034Z,15.33
2023-03-19T11:57:00.913Z,14.95
2023-03-19T11:59:28.022Z,14.82
2023-03-19T12:02:25.292Z,14.58
2023-03-19T12:05:04.622Z,14.86
2023-03-19T12:08:07.814Z,14.59
2023-03-19T12:10:38.381Z,14.56
2023-03-19T12:13:43.729Z,14.61
2023-03-19T12:17:04.958Z,14.70
2023-03-19T12:19:34.450Z,14.21
2023-03-19T12:22:26.010Z,14.09
2023-03-19T12:25:30.160Z,14.40
2023-03-19T12:28:07.418Z,14.70
2023-03-19T12:31:06.974Z,14.84
2023-03-19T12:33:53.993Z,14.62
2023-03-19T12:36:24.942Z,14.67
2023-03-19T12:38:55.054Z,14.65
2023-03-19T12:44:33.356Z,14.73
2023-03-19T12:47:20.086Z,14.83
2023-03-19T12:50:01.748Z,14.63
2023-03-19T12:52:59.447Z,14.93
2023-03-19T12:55:38.105Z,14.80
2023-03-19T13:04:15.031Z,14.77
2023-03-19T13:07:02.860Z,14.68
2023-03-19T13:09:49.912Z,14.91
2023-03-19T13:16:32.253Z,14.58
2023-03-19T13:19:18.286Z,14.47
2023-03-19T13:21:59.857Z,14.47
2023-03-19T13:24:41.605Z,14.32
2023-03-19T13:27:23.604Z,14.43
2023-03-19T13:30:08.777Z,14.49
2023-03-19T13:33:01.901Z,14.54
2023-03-19T13:35:44.297Z,14.68
2023-03-19T13:38:48.419Z,14.55
2023-03-19T13:41:58.398Z,14.79
2023-03-19T13:48:39.438Z,14.72
2023-03-19T13:52:12.934Z,14.96
2023-03-19T13:54:48.604Z,15.09
2023-03-19T13:57:27.100Z,14.95
2023-03-19T14:01:03.786Z,14.89
2023-03-19T14:04:21.569Z,14.73
2023-03-19T14:07:26.978Z,14.45
2023-03-19T14:10:27.642Z,14.28
2023-03-19T14:13:32.692Z,14.60
2023-03-19T14:16:19.248Z,14.61
2023-03-19T14:18:47.450Z,14.41
2023-03-19T14:22:06.303Z,14.41
2023-03-19T14:25:27.595Z,14.73
2023-03-19T14:28:32.262Z,15.18
2023-03-19T14:30:59.783Z,15.21
2023-03-19T14:33:44.899Z,15.21
2023-03-19T14:36:15.098Z,15.20
2023-03-19T14:38:53.934Z,14.88
2023-03-19T14:41:22.886Z,14.71
2023-03-19T14:47:35.483Z,14.62
2023-03-19T14:54:39.600Z,14.59
2023-03-19T14:57:38.040Z,14.26
2023-03-19T15:00:25.430Z,14.07
2023-03-19T15:06:14.410Z,14.12
2023-03-19T15:08:43.682Z,14.22
2023-03-19T15:11:19.775Z,14.20
2023-03-19T15:14:08.100Z,13.96
2023-03-19T15:17:13.910Z,14.12
2023-03-19T15:19:45.690Z,14.08
2023-03-19T15:22:38.328Z,14.13
2023-03-19T15:25:10.599Z,14.08
2023-03-19T15:27:41.603Z,14.26
2023-03-19T15:30:29.402Z,14.17
2023-03-19T15:33:10.437Z,14.06
2023-03-19T15:35:41.827Z,13.97
2023-03-19T15:38:14.003Z,13.90
2023-03-19T15:40:41.608Z,13.88
2023-03-19T15:43:11.713Z,13.85
2023-03-19T15:45:39.237Z,13.81
2023-03-19T15:48:28.269Z,13.83
2023-03-19T15:51:00.009Z,13.88
2023-03-19T15:53:35.949Z,13.90
2023-03-19T15:56:04.448Z,13.73
2023-03-19T15:58:44.831Z,13.60
2023-03-19T16:01:12.496Z,13.63
2023-03-19T16:03:53.517Z,13.66
2023-03-19T16:06:27.255Z,13.75
2023-03-19T16:09:32.312Z,13.58
2023-03-19T16:12:02.895Z,13.57
2023-03-19T16:14:50.790Z,13.60
2023-03-19T16:17:20.323Z,13.38
2023-03-19T16:19:50.102Z,13.33
2023-03-19T16:22:25.066Z,13.24
2023-03-19T16:24:53.872Z,13.15
2023-03-19T16:28:00.152Z,13.06
2023-03-19T16:31:01.637Z,13.02
2023-03-19T16:33:36.646Z,13.08
2023-03-19T16:36:03.778Z,13.09
2023-03-19T16:38:43.476Z,12.97
2023-03-19T16:41:32.556Z,12.90
2023-03-19T16:44:22.677Z,12.90
2023-03-19T16:46:55.031Z,12.92
2023-03-19T16:49:21.968Z,12.90
2023-03-19T16:51:49.070Z,12.81
2023-03-19T16:54:26.716Z,12.72
2023-03-19T16:56:54.030Z,12.66
2023-03-19T16:59:26.607Z,12.52
2023-03-19T17:01:57.225Z,12.30
2023-03-19T17:04:26.929Z,12.09
2023-03-19T17:06:53.884Z,11.93
2023-03-19T17:09:29.817Z,11.88
2023-03-19T17:11:56.925Z,11.69
2023-03-19T17:14:26.076Z,11.52
2023-03-19T17:17:03.033Z,11.34
2023-03-19T17:25:15.855Z,10.88
2023-03-19T17:27:42.726Z,10.73
2023-03-19T17:30:10.365Z,10.60
2023-03-19T17:33:02.601Z,10.43
2023-03-19T17:35:29.395Z,10.30
2023-03-19T17:37:59.636Z,10.13
2023-03-19T17:40:27.765Z,9.93
2023-03-19T17:42:58.537Z,9.84
2023-03-19T17:45:28.758Z,9.75
2023-03-19T17:47:57.795Z,9.62
2023-03-19T17:50:31.874Z,9.50
2023-03-19T17:52:59.787Z,9.41
2023-03-19T17:55:29.042Z,9.34
2023-03-19T17:58:04.005Z,9.27
2023-03-19T18:00:30.866Z,9.24
2023-03-19T18:03:27.061Z,9.24
2023-03-19T18:06:10.996Z,9.24
2023-03-19T18:08:37.854Z,9.32
2023-03-19T18:11:04.958Z,9.34
2023-03-19T18:13:31.803Z,9.35
2023-03-19T18:15:58.891Z,9.30
2023-03-19T18:18:31.512Z,9.25
2023-03-19T18:21:00.524Z,9.27
2023-03-19T18:23:31.300Z,9.24
2023-03-19T18:26:01.431Z,9.23
2023-03-19T18:28:28.330Z,9.16
2023-03-19T18:31:01.713Z,9.07
2023-03-19T18:33:32.777Z,9.02
2023-03-19T18:35:59.592Z,9.06
2023-03-19T18:38:29.630Z,8.99
2023-03-19T18:41:05.283Z,8.98
2023-03-19T18:43:32.083Z,8.98
2023-03-19T18:45:58.967Z,8.95
2023-03-19T18:48:35.032Z,8.87
2023-03-19T18:51:02.114Z,8.77
2023-03-19T18:53:30.266Z,8.75
2023-03-19T18:56:23.575Z,8.72
2023-03-19T18:58:50.702Z,8.77
2023-03-19T19:01:18.381Z,8.71
2023-03-19T19:03:46.334Z,8.80
2023-03-19T19:06:28.264Z,8.83
2023-03-19T19:09:05.390Z,8.82
2023-03-19T19:11:32.471Z,8.84
2023-03-19T19:14:00.809Z,8.88
2023-03-19T19:16:53.337Z,8.96
2023-03-19T19:19:23.262Z,9.15
2023-03-19T19:21:53.029Z,9.21
2023-03-19T19:24:28.580Z,9.23
2023-03-19T19:26:56.886Z,9.31
2023-03-19T19:29:57.358Z,9.32
2023-03-19T19:32:28.652Z,9.51
2023-03-19T19:35:17.189Z,9.59
2023-03-19T19:37:47.540Z,9.60
2023-03-19T19:40:17.061Z,9.58
2023-03-19T19:42:45.126Z,9.64
2023-03-19T19:45:33.877Z,9.56
2023-03-19T19:48:00.680Z,9.59
2023-03-19T19:50:27.937Z,9.57
2023-03-19T19:52:57.973Z,9.67
2023-03-19T19:55:34.151Z,9.62
2023-03-19T19:58:01.586Z,9.60
2023-03-19T20:00:30.629Z,9.61
2023-03-19T20:03:06.402Z,9.56
2023-03-19T20:05:34.016Z,9.57
2023-03-19T20:08:01.777Z,9.58
2023-03-19T20:10:34.666Z,9.67
2023-03-19T20:13:01.697Z,9.61
2023-03-19T20:15:34.373Z,9.65
2023-03-19T20:18:05.304Z,9.62
2023-03-19T20:20:33.248Z,9.63
2023-03-19T20:23:01.659Z,9.65
2023-03-19T20:25:37.691Z,9.61
2023-03-19T20:28:05.887Z,9.62
2023-03-19T20:30:35.944Z,9.72
2023-03-19T20:33:03.732Z,9.64
2023-03-19T20:35:39.319Z,9.80
2023-03-19T20:38:06.704Z,9.72
2023-03-19T20:40:59.328Z,9.70
2023-03-19T20:43:31.995Z,9.80
2023-03-19T20:46:06.886Z,9.76
2023-03-19T20:48:34.449Z,9.73
2023-03-19T20:51:02.080Z,9.67
2023-03-19T20:53:36.169Z,9.66
2023-03-19T20:56:10.361Z,9.66
2023-03-19T20:58:37.228Z,9.70
2023-03-19T21:01:29.513Z,9.65
2023-03-19T21:03:56.411Z,9.67
2023-03-19T21:06:24.125Z,9.61
2023-03-19T21:08:54.344Z,9.69
2023-03-19T21:11:22.827Z,9.65
2023-03-19T21:13:53.398Z,9.72
2023-03-19T21:16:21.161Z,9.84
2023-03-19T21:18:55.528Z,9.83
2023-03-19T21:21:48.596Z,9.79
2023-03-19T21:24:33.595Z,9.68
2023-03-19T21:27:05.747Z,9.77
2023-03-19T21:29:33.584Z,9.73
2023-03-19T21:32:00.777Z,9.75
2023-03-19T21:34:36.991Z,9.78
2023-03-19T21:37:04.893Z,9.77
2023-03-19T21:39:32.697Z,9.72
2023-03-19T21:42:09.775Z,9.67
2023-03-19T21:44:36.961Z,9.55
2023-03-19T21:47:04.668Z,9.43
2023-03-19T21:49:40.911Z,9.42
2023-03-19T21:52:12.700Z,9.41
2023-03-19T21:54:40.469Z,9.28
2023-03-19T21:57:13.582Z,9.22
2023-03-19T21:59:41.048Z,9.26
2023-03-19T22:02:23.274Z,9.23
2023-03-19T22:04:50.048Z,9.18
2023-03-19T22:07:22.190Z,9.19
2023-03-19T22:09:48.909Z,9.14
2023-03-19T22:12:25.924Z,9.15
2023-03-19T22:15:16.899Z,9.12
2023-03-19T22:17:43.597Z,9.07
2023-03-19T22:20:23.068Z,9.03
2023-03-19T22:22:50.297Z,9.00
2023-03-19T22:25:18.225Z,9.11
2023-03-19T22:27:46.926Z,9.13
2023-03-19T22:30:30.182Z,8.99
2023-03-19T22:33:00.148Z,8.99
2023-03-19T22:35:27.143Z,8.86
2023-03-19T22:37:54.134Z,8.91
2023-03-19T22:40:21.084Z,8.88
2023-03-19T22:42:49.266Z,8.96
2023-03-19T22:45:26.229Z,8.78
2023-03-19T22:47:53.663Z,8.79
2023-03-19T22:50:33.997Z,8.71
2023-03-19T22:53:01.118Z,8.80
2023-03-19T22:55:27.863Z,8.79
2023-03-19T22:58:03.639Z,8.78
2023-03-19T23:00:30.312Z,8.70
2023-03-19T23:02:57.843Z,8.69
2023-03-19T23:05:41.482Z,8.72
2023-03-19T23:08:18.115Z,8.69
2023-03-19T23:10:45.603Z,8.69
2023-03-19T23:13:13.894Z,8.61
2023-03-19T23:15:52.995Z,8.59
2023-03-19T23:18:32.914Z,8.51
2023-03-19T23:21:00.897Z,8.45
2023-03-19T23:23:28.644Z,8.41
2023-03-19T23:26:04.359Z,8.40
2023-03-19T23:28:32.962Z,8.42
2023-03-19T23:31:02.859Z,8.34
2023-03-19T23:33:36.079Z,8.26
2023-03-19T23:36:03.084Z,8.20
2023-03-19T23:38:29.798Z,8.13
2023-03-19T23:41:26.799Z,8.05
2023-03-19T23:43:54.783Z,7.93
2023-03-19T23:46:22.167Z,7.89
2023-03-19T23:48:48.878Z,7.89
2023-03-19T23:51:18.997Z,7.84
2023-03-19T23:53:45.987Z,7.84
2023-03-19T23:56:24.057Z,7.91
2023-03-19T23:58:51.766Z,7.85
